createdAt,value
2022-07-28T00:00:47.569Z,18.25
2022-07-28T00:05:50.238Z,18.28
2022-07-28T00:10:52.965Z,17.82
2022-07-28T00:15:56.998Z,18.19
2022-07-28T00:20:59.869Z,18.14
2022-07-28T00:26:03.210Z,17.78
2022-07-28T00:31:09.474Z,18.10
2022-07-28T00:36:13.456Z,18.13
2022-07-28T00:41:20.731Z,17.85
2022-07-28T00:46:25.339Z,17.87
2022-07-28T00:51:29.513Z,18.14
2022-07-28T00:56:33.192Z,18.12
2022-07-28T01:01:37.691Z,18.01
2022-07-28T01:06:59.755Z,18.05
2022-07-28T01:12:11.993Z,18.05
2022-07-28T01:17:27.965Z,18.21
2022-07-28T01:22:36.084Z,17.99
2022-07-28T01:27:52.094Z,17.76
2022-07-28T01:33:02.061Z,17.94
2022-07-28T01:38:08.363Z,17.96
2022-07-28T01:43:15.400Z,17.69
2022-07-28T01:48:22.025Z,17.81
2022-07-28T01:53:27.202Z,17.70
2022-07-28T01:58:31.690Z,17.56
2022-07-28T02:03:38.041Z,17.43
2022-07-28T02:08:42.598Z,17.16
2022-07-28T02:13:48.132Z,17.39
2022-07-28T02:18:54.777Z,17.20
2022-07-28T02:23:59.531Z,17.32
2022-07-28T02:29:04.232Z,16.95
2022-07-28T02:34:11.947Z,16.76
2022-07-28T02:39:21.570Z,16.78
2022-07-28T02:44:29.363Z,16.73
2022-07-28T02:49:36.214Z,16.94
2022-07-28T02:54:41.494Z,16.66
2022-07-28T02:59:45.861Z,16.96
2022-07-28T03:05:01.589Z,16.69
2022-07-28T03:10:05.984Z,16.67
2022-07-28T03:15:10.164Z,16.71
2022-07-28T03:20:15.469Z,16.60
2022-07-28T03:25:22.552Z,16.52
2022-07-28T03:30:30.373Z,16.60
2022-07-28T03:35:36.510Z,16.47
2022-07-28T03:40:40.465Z,16.26
2022-07-28T03:45:49.326Z,16.24
2022-07-28T03:50:53.405Z,16.70
2022-07-28T03:55:57.687Z,16.73
2022-07-28T04:01:02.862Z,16.77
2022-07-28T04:06:07.041Z,16.80
2022-07-28T04:11:09.777Z,16.25
2022-07-28T04:16:12.472Z,16.76
2022-07-28T04:21:17.117Z,16.92
2022-07-28T04:26:19.959Z,16.76
2022-07-28T04:31:22.708Z,16.97
2022-07-28T04:36:27.307Z,17.17
2022-07-28T04:41:30.220Z,16.77
2022-07-28T04:46:34.724Z,17.01
2022-07-28T04:51:38.797Z,17.22
2022-07-28T04:56:41.611Z,17.09
2022-07-28T05:01:44.384Z,17.15
2022-07-28T05:06:48.570Z,17.24
2022-07-28T05:11:51.252Z,17.38
2022-07-28T05:16:54.108Z,17.19
2022-07-28T05:21:58.281Z,17.18
2022-07-28T05:27:01.075Z,17.19
2022-07-28T05:32:17.187Z,17.31
2022-07-28T05:37:21.840Z,17.53
2022-07-28T05:42:26.479Z,17.65
2022-07-28T05:47:29.127Z,17.26
2022-07-28T05:52:33.278Z,17.67
2022-07-28T05:57:36.800Z,17.71
2022-07-28T06:02:39.526Z,17.85
2022-07-28T06:07:44.477Z,17.91
2022-07-28T06:12:48.776Z,17.97
2022-07-28T06:17:53.234Z,17.70
2022-07-28T06:22:57.685Z,17.68
2022-07-28T06:28:02.707Z,17.73
2022-07-28T06:33:05.789Z,17.96
2022-07-28T06:38:10.113Z,18.01
2022-07-28T06:43:14.604Z,17.99
2022-07-28T06:48:18.777Z,18.10
2022-07-28T06:53:23.266Z,18.08
2022-07-28T06:58:25.964Z,18.18
2022-07-28T07:03:28.660Z,18.14
2022-07-28T07:08:33.080Z,18.48
2022-07-28T07:13:36.914Z,18.57
2022-07-28T07:18:39.636Z,18.67
2022-07-28T07:23:43.595Z,18.72
2022-07-28T07:28:47.987Z,18.74
2022-07-28T07:33:50.669Z,18.53
2022-07-28T07:38:54.697Z,18.70
2022-07-28T07:43:57.421Z,18.57
2022-07-28T07:49:00.222Z,18.66
2022-07-28T07:54:04.695Z,18.85
2022-07-28T07:59:07.894Z,18.94
2022-07-28T08:04:10.723Z,19.01
2022-07-28T08:09:15.393Z,19.11
2022-07-28T08:14:18.494Z,19.21
2022-07-28T08:19:21.915Z,19.28
2022-07-28T08:24:32.929Z,19.40
2022-07-28T08:29:36.869Z,19.30
2022-07-28T08:34:39.672Z,19.74
2022-07-28T08:39:43.969Z,20.01
2022-07-28T08:44:53.239Z,20.13
2022-07-28T08:49:59.402Z,19.87
2022-07-28T08:55:06.548Z,20.30
2022-07-28T09:00:10.545Z,20.42
2022-07-28T09:05:13.561Z,20.49
2022-07-28T09:10:18.867Z,20.55
2022-07-28T09:15:21.928Z,20.61
2022-07-28T09:20:25.566Z,20.36
2022-07-28T09:25:31.009Z,20.71
2022-07-28T09:30:36.467Z,20.74
2022-07-28T09:35:44.205Z,20.48
2022-07-28T09:40:59.273Z,20.83
2022-07-28T09:46:10.179Z,20.73
2022-07-28T09:51:14.769Z,20.60
2022-07-28T09:56:18.783Z,21.00
2022-07-28T10:01:22.409Z,21.09
2022-07-28T10:06:30.994Z,21.15
2022-07-28T10:11:40.944Z,20.81
2022-07-28T10:16:47.038Z,21.26
2022-07-28T10:21:55.512Z,21.14
2022-07-28T10:27:02.918Z,21.38
2022-07-28T10:32:08.177Z,20.73
2022-07-28T10:37:18.307Z,21.57
2022-07-28T10:42:22.898Z,21.65
2022-07-28T10:47:26.646Z,21.43
2022-07-28T10:52:50.676Z,21.38
2022-07-28T10:58:11.507Z,22.07
2022-07-28T11:03:37.743Z,21.79
2022-07-28T11:08:40.540Z,22.20
2022-07-28T11:13:44.730Z,22.32
2022-07-28T11:19:07.660Z,22.51
2022-07-28T11:25:18.618Z,22.81
2022-07-28T11:30:53.745Z,23.03
2022-07-28T11:35:59.200Z,23.00
2022-07-28T11:41:01.821Z,23.40
2022-07-28T11:46:37.651Z,22.97
2022-07-28T11:51:52.392Z,23.54
2022-07-28T11:56:59.272Z,23.56
2022-07-28T12:02:03.434Z,23.87
2022-07-28T12:07:09.675Z,24.12
2022-07-28T12:12:13.283Z,24.17
2022-07-28T12:17:18.524Z,24.28
2022-07-28T12:22:21.248Z,24.55
2022-07-28T12:27:38.488Z,24.59
2022-07-28T12:32:45.369Z,24.63
2022-07-28T12:37:50.671Z,24.68
2022-07-28T12:42:56.937Z,24.93
2022-07-28T12:48:08.114Z,25.12
2022-07-28T12:53:12.520Z,25.12
2022-07-28T12:58:24.497Z,25.04
2022-07-28T13:03:29.945Z,25.58
2022-07-28T13:08:44.112Z,25.82
2022-07-28T13:13:52.024Z,25.86
2022-07-28T13:18:57.861Z,26.08
2022-07-28T13:24:00.665Z,26.16
2022-07-28T13:29:04.439Z,26.04
2022-07-28T13:34:17.435Z,26.65
2022-07-28T13:39:20.611Z,26.94
2022-07-28T13:44:23.402Z,26.76
2022-07-28T13:49:28.384Z,26.50
2022-07-28T13:54:31.390Z,26.30
2022-07-28T13:59:36.262Z,26.20
2022-07-28T14:04:42.241Z,26.34
2022-07-28T14:09:50.097Z,26.23
2022-07-28T14:14:53.157Z,25.98
2022-07-28T14:19:57.292Z,25.95
2022-07-28T14:25:00.134Z,26.19
2022-07-28T14:30:04.169Z,26.53
2022-07-28T14:35:13.211Z,27.06
2022-07-28T14:40:17.441Z,27.35
2022-07-28T14:45:20.287Z,27.22
2022-07-28T14:50:25.086Z,26.86
2022-07-28T14:55:28.445Z,26.38
2022-07-28T15:00:31.234Z,26.07
2022-07-28T15:05:35.279Z,25.92
2022-07-28T15:10:39.335Z,25.64
2022-07-28T15:16:12.594Z,25.67
2022-07-28T15:21:17.682Z,25.46
2022-07-28T15:26:20.557Z,25.54
2022-07-28T15:31:24.234Z,25.44
2022-07-28T15:36:30.283Z,25.33
2022-07-28T15:41:33.304Z,25.12
2022-07-28T15:46:36.221Z,24.95
2022-07-28T15:51:41.272Z,24.77
2022-07-28T15:56:44.204Z,24.63
2022-07-28T16:01:47.125Z,24.58
2022-07-28T16:07:11.310Z,24.46
2022-07-28T16:12:14.813Z,24.33
2022-07-28T16:17:18.304Z,24.30
2022-07-28T16:22:22.840Z,24.29
2022-07-28T16:27:25.644Z,24.30
2022-07-28T16:32:28.601Z,24.27
2022-07-28T16:37:33.133Z,24.28
2022-07-28T16:42:36.667Z,24.30
2022-07-28T16:47:40.235Z,24.22
2022-07-28T16:52:44.439Z,24.17
2022-07-28T16:57:47.527Z,24.12
2022-07-28T17:02:50.520Z,24.05
2022-07-28T17:07:55.544Z,23.99
2022-07-28T17:12:58.816Z,24.06
2022-07-28T17:18:01.692Z,24.09
2022-07-28T17:23:06.498Z,24.05
2022-07-28T17:28:09.643Z,24.02
2022-07-28T17:33:12.571Z,23.89
2022-07-28T17:38:21.345Z,23.57
2022-07-28T17:43:24.599Z,23.82
2022-07-28T17:48:27.462Z,23.76
2022-07-28T17:53:31.629Z,23.69
2022-07-28T17:58:34.353Z,23.61
2022-07-28T18:03:59.760Z,23.53
2022-07-28T18:09:07.212Z,23.49
2022-07-28T18:14:11.045Z,23.51
2022-07-28T18:19:14.578Z,23.31
2022-07-28T18:24:22.260Z,23.38
2022-07-28T18:29:38.453Z,23.26
2022-07-28T18:34:41.684Z,23.15
2022-07-28T18:39:45.835Z,23.11
2022-07-28T18:44:48.656Z,23.06
2022-07-28T18:49:51.668Z,23.00
2022-07-28T18:54:56.259Z,22.86
2022-07-28T18:59:59.036Z,22.81
2022-07-28T19:05:01.864Z,22.73
2022-07-28T19:10:07.548Z,22.67
2022-07-28T19:15:10.782Z,22.62
2022-07-28T19:20:13.641Z,22.58
2022-07-28T19:25:17.715Z,22.53
2022-07-28T19:30:22.709Z,22.48
2022-07-28T19:35:25.918Z,22.47
2022-07-28T19:40:31.689Z,22.40
2022-07-28T19:45:34.738Z,22.20
2022-07-28T19:50:37.582Z,22.28
2022-07-28T19:55:41.645Z,22.35
2022-07-28T20:00:53.796Z,22.34
2022-07-28T20:05:59.866Z,22.28
2022-07-28T20:11:04.302Z,22.24
2022-07-28T20:16:07.527Z,22.19
2022-07-28T20:21:10.312Z,22.12
2022-07-28T20:26:15.372Z,22.16
2022-07-28T20:31:19.086Z,22.11
2022-07-28T20:36:25.079Z,22.14
2022-07-28T20:41:33.227Z,22.10
2022-07-28T20:46:37.001Z,22.06
2022-07-28T20:51:40.135Z,22.07
2022-07-28T20:56:55.490Z,22.03
2022-07-28T21:01:58.894Z,22.06
2022-07-28T21:07:04.156Z,22.05
2022-07-28T21:12:09.507Z,22.02
2022-07-28T21:17:12.406Z,21.97
2022-07-28T21:22:16.274Z,21.96
2022-07-28T21:27:21.341Z,21.79
2022-07-28T21:32:24.248Z,21.80
2022-07-28T21:37:27.346Z,21.78
2022-07-28T21:42:31.550Z,21.73
2022-07-28T21:47:35.377Z,21.72
2022-07-28T21:52:41.235Z,21.70
2022-07-28T21:57:46.485Z,21.66
2022-07-28T22:02:49.543Z,21.70
2022-07-28T22:07:52.753Z,21.67
2022-07-28T22:12:59.472Z,21.60
2022-07-28T22:18:02.189Z,21.57
2022-07-28T22:23:05.141Z,21.52
2022-07-28T22:28:30.712Z,21.47
2022-07-28T22:33:33.668Z,21.40
2022-07-28T22:38:36.466Z,21.14
2022-07-28T22:43:40.952Z,21.39
2022-07-28T22:48:44.597Z,21.40
2022-07-28T22:53:47.415Z,21.11
2022-07-28T22:58:51.401Z,21.36
2022-07-28T23:03:54.039Z,21.28
2022-07-28T23:08:56.973Z,21.31
2022-07-28T23:14:01.024Z,21.31
2022-07-28T23:19:03.900Z,21.27
2022-07-28T23:24:07.381Z,21.21
2022-07-28T23:29:11.392Z,21.10
2022-07-28T23:34:14.435Z,21.12
2022-07-28T23:39:17.247Z,21.18
2022-07-28T23:44:21.145Z,20.99
2022-07-28T23:49:24.150Z,21.03
2022-07-28T23:54:26.758Z,20.93
2022-07-28T23:59:32.156Z,20.88
